Time;durP1;ratioP1;P1;durP2;ratioP2;P2;SDS_P1;SDS_P2;PMS_P1;PMS_P2;Temp;Humidity;BMP_temperature;BMP_pressure;BME280_temperature;BME280_humidity;BME280_pressure;Samples;Min_cycle;Max_cycle;Signal;HPM_P1;HPM_P2
2021/07/03 00:00:02;;;;;;;4.25;4.03;;;;;;;19.95;60.65;101616.91;6265264;28;20511;-75
2021/07/03 00:03:11;;;;;;;4.05;3.95;;;;;;;19.87;60.75;101611.84;6265245;28;20466;-75
2021/07/03 00:06:17;;;;;;;4.53;4.22;;;;;;;19.91;60.68;101617.69;6265220;28;20519;-74
2021/07/03 00:09:21;;;;;;;3.63;3.53;;;;;;;19.80;61.09;101616.72;6265065;28;20410;-75
2021/07/03 00:12:26;;;;;;;3.83;3.72;;;;;;;19.77;61.12;101628.31;6265085;28;20481;-75
2021/07/03 00:15:30;;;;;;;3.85;3.75;;;;;;;19.83;60.65;101630.06;6264882;28;20487;-75
2021/07/03 00:18:34;;;;;;;4.72;4.53;;;;;;;19.78;61.01;101623.63;6265772;28;20192;-75
2021/07/03 00:21:40;;;;;;;4.28;4.07;;;;;;;19.66;61.33;101625.69;6266061;28;20252;-75
2021/07/03 00:24:44;;;;;;;3.90;3.72;;;;;;;19.65;62.35;101630.41;6264510;28;20188;-75
2021/07/03 00:27:48;;;;;;;4.18;4.00;;;;;;;19.68;61.71;101629.88;6265931;28;20327;-75
2021/07/03 00:30:52;;;;;;;3.85;3.45;;;;;;;19.63;61.52;101629.81;6265487;28;20295;-75
2021/07/03 00:33:56;;;;;;;4.13;4.00;;;;;;;19.58;61.50;101632.53;6263171;28;20478;-76
2021/07/03 00:37:02;;;;;;;4.22;3.75;;;;;;;19.46;61.91;101637.38;6265399;28;20231;-75
2021/07/03 00:40:08;;;;;;;3.67;3.53;;;;;;;19.47;61.82;101638.19;6264319;28;20398;-75
2021/07/03 00:43:13;;;;;;;3.75;3.65;;;;;;;19.54;61.62;101634.13;6264628;28;20373;-75
2021/07/03 00:46:22;;;;;;;4.13;3.88;;;;;;;19.48;61.85;101635.16;6264270;28;20200;-75
2021/07/03 00:49:29;;;;;;;3.80;3.60;;;;;;;19.45;61.56;101635.69;6265083;28;20192;-75
2021/07/03 00:52:40;;;;;;;3.85;3.58;;;;;;;19.49;60.98;101631.28;6265323;28;20216;-75
2021/07/03 00:55:52;;;;;;;4.22;3.65;;;;;;;19.47;60.89;101630.72;6265033;28;20185;-75
2021/07/03 00:58:57;;;;;;;4.05;3.88;;;;;;;19.40;61.43;101627.31;6264940;28;20185;-75
2021/07/03 01:02:06;;;;;;;4.00;3.90;;;;;;;19.33;61.75;101632.16;6246151;28;20549;-75
2021/07/03 01:05:11;;;;;;;3.95;3.75;;;;;;;19.35;61.17;101624.44;6263700;28;20414;-75
2021/07/03 01:08:17;;;;;;;4.80;3.75;;;;;;;19.35;62.06;101624.44;6246380;28;20207;-76
2021/07/03 01:11:27;;;;;;;3.55;3.35;;;;;;;19.39;61.83;101630.34;6246606;28;20496;-75
2021/07/03 01:14:32;;;;;;;3.90;3.70;;;;;;;19.27;61.14;101622.97;6264927;28;20253;-74
2021/07/03 01:17:36;;;;;;;4.10;3.90;;;;;;;19.33;61.00;101621.09;6262976;28;20207;-74
2021/07/03 01:20:41;;;;;;;3.47;3.38;;;;;;;19.24;62.20;101628.16;6245948;28;20396;-74
2021/07/03 01:23:46;;;;;;;3.85;3.55;;;;;;;19.31;62.17;101620.53;6264668;28;20185;-74
2021/07/03 01:26:55;;;;;;;4.15;4.00;;;;;;;19.14;62.38;101614.19;6245764;28;20274;-75
2021/07/03 01:30:00;;;;;;;4.13;3.78;;;;;;;19.03;62.32;101620.66;6246921;28;20264;-74
2021/07/03 01:33:06;;;;;;;4.72;3.70;;;;;;;19.08;62.12;101617.97;6246322;28;20302;-74
2021/07/03 01:36:11;;;;;;;3.80;3.60;;;;;;;19.14;62.14;101605.88;6261969;28;20456;-74
2021/07/03 01:39:17;;;;;;;4.28;4.07;;;;;;;19.21;61.83;101617.59;6263856;28;20204;-74
2021/07/03 01:42:21;;;;;;;3.78;3.67;;;;;;;19.09;62.29;101625.16;6245514;28;20204;-75
2021/07/03 01:45:26;;;;;;;3.97;3.80;;;;;;;19.15;62.35;101613.09;6262641;28;20256;-75
2021/07/03 01:48:35;;;;;;;3.53;3.42;;;;;;;19.21;61.87;101623.13;6261928;28;20246;-75
2021/07/03 01:51:49;;;;;;;4.47;4.18;;;;;;;19.11;61.84;101622.97;6245255;28;20312;-75
2021/07/03 01:54:55;;;;;;;3.88;3.58;;;;;;;19.14;61.90;101628.00;6263593;28;20217;-75
2021/07/03 01:57:59;;;;;;;3.78;3.67;;;;;;;19.15;61.53;101613.09;6262563;28;20243;-75
2021/07/03 02:01:16;;;;;;;3.95;3.58;;;;;;;19.09;61.93;101619.63;6241229;28;20432;-75
2021/07/03 02:04:22;;;;;;;4.10;3.75;;;;;;;19.13;61.73;101610.56;6260348;28;20236;-75
2021/07/03 02:07:26;;;;;;;3.10;3.00;;;;;;;19.13;61.46;101623.59;6261863;28;20386;-75
2021/07/03 02:10:32;;;;;;;4.15;4.03;;;;;;;19.16;61.22;101614.75;6263445;28;20188;-75
2021/07/03 02:13:37;;;;;;;3.80;3.63;;;;;;;19.15;61.34;101618.63;6262108;28;20232;-75
2021/07/03 02:16:43;;;;;;;3.97;3.72;;;;;;;19.12;61.87;101624.66;6263090;28;20221;-75
2021/07/03 02:19:47;;;;;;;3.50;3.40;;;;;;;19.01;62.43;101614.53;6261989;28;20252;-75
2021/07/03 02:22:59;;;;;;;3.67;3.47;;;;;;;18.94;62.65;101616.66;6260551;28;20239;-75
2021/07/03 02:26:07;;;;;;;3.47;3.45;;;;;;;19.04;63.02;101617.63;6244574;28;20205;-75
2021/07/03 02:29:14;;;;;;;3.72;3.53;;;;;;;19.00;62.35;101612.88;6261715;28;20367;-75
2021/07/03 02:32:18;;;;;;;3.75;3.65;;;;;;;18.82;63.23;101613.16;6263003;28;20219;-75
2021/07/03 02:35:25;;;;;;;3.85;3.53;;;;;;;18.97;62.67;101610.63;6245308;28;20200;-75
2021/07/03 02:38:31;;;;;;;3.80;3.50;;;;;;;18.96;62.61;101608.94;6263037;28;20259;-75
2021/07/03 02:41:37;;;;;;;4.45;3.60;;;;;;;18.98;62.45;101612.28;6262964;28;20189;-74
2021/07/03 02:44:43;;;;;;;3.45;3.42;;;;;;;18.96;62.75;101620.84;6244541;28;20514;-75
2021/07/03 02:47:50;;;;;;;3.47;3.38;;;;;;;18.98;62.64;101612.28;6253947;28;20414;-74
2021/07/03 02:50:55;;;;;;;4.03;3.80;;;;;;;19.02;62.73;101613.47;6262715;28;20184;-74
2021/07/03 02:53:59;;;;;;;3.55;3.35;;;;;;;18.85;63.26;101612.66;6261386;28;20206;-74
2021/07/03 02:57:07;;;;;;;3.60;3.50;;;;;;;18.88;63.10;101617.66;6243759;28;20210;-75
2021/07/03 03:00:14;;;;;;;4.18;3.85;;;;;;;18.92;63.44;101629.91;6244034;28;20268;-75
2021/07/03 03:03:20;;;;;;;3.67;3.47;;;;;;;18.88;63.69;101628.72;6262002;28;20232;-75
2021/07/03 03:06:25;;;;;;;3.45;3.28;;;;;;;18.85;63.63;101632.00;6261210;28;20200;-75
2021/07/03 03:09:37;;;;;;;4.10;4.00;;;;;;;18.73;64.42;101638.44;6244417;28;20279;-75
2021/07/03 03:12:45;;;;;;;5.03;3.78;;;;;;;18.92;63.65;101619.69;6262245;28;20212;-75
2021/07/03 03:15:51;;;;;;;3.47;3.38;;;;;;;18.81;64.30;101630.81;6261796;28;20436;-74
2021/07/03 03:18:58;;;;;;;4.13;3.78;;;;;;;18.79;63.77;101627.47;6262400;28;20264;-74
2021/07/03 03:22:05;;;;;;;3.92;3.72;;;;;;;18.71;63.94;101623.22;6244025;28;20507;-74
2021/07/03 03:25:11;;;;;;;3.53;3.53;;;;;;;18.87;64.16;101621.53;6244066;28;20274;-75
2021/07/03 03:28:17;;;;;;;3.90;3.80;;;;;;;18.92;63.68;101618.84;6244175;28;20224;-74
2021/07/03 03:31:22;;;;;;;4.57;3.70;;;;;;;18.89;63.77;101619.34;6262267;28;20239;-75
2021/07/03 03:34:29;;;;;;;3.85;3.60;;;;;;;18.92;64.22;101614.16;6244656;28;20267;-75
2021/07/03 03:37:33;;;;;;;4.20;4.00;;;;;;;18.77;64.41;101632.44;6262247;28;20217;-74
2021/07/03 03:40:39;;;;;;;4.00;3.80;;;;;;;18.88;64.36;101625.94;6260483;28;20206;-75
2021/07/03 03:43:48;;;;;;;3.72;3.63;;;;;;;18.96;64.88;101622.75;6262293;28;20188;-75
2021/07/03 03:46:53;;;;;;;3.78;3.58;;;;;;;18.93;64.63;101623.25;6261304;28;20579;-75
2021/07/03 03:50:04;;;;;;;4.25;3.78;;;;;;;18.88;64.77;101621.25;6243831;28;20258;-75
2021/07/03 03:53:09;;;;;;;3.65;3.35;;;;;;;18.94;64.84;101616.66;6244365;28;20228;-75
2021/07/03 03:56:13;;;;;;;3.90;3.63;;;;;;;18.93;64.76;101621.34;6243196;28;20236;-75
2021/07/03 03:59:24;;;;;;;3.90;3.80;;;;;;;18.96;64.70;101620.84;6262211;28;20185;-75
2021/07/03 04:02:28;;;;;;;3.97;3.67;;;;;;;18.94;64.94;101622.19;6259912;28;20314;-75
2021/07/03 04:05:34;;;;;;;3.55;3.45;;;;;;;18.99;64.82;101631.41;6259794;28;20251;-75
2021/07/03 04:08:38;;;;;;;3.90;3.80;;;;;;;18.95;65.33;101634.94;6245211;28;20232;-75
2021/07/03 04:11:43;;;;;;;4.25;4.05;;;;;;;19.01;65.04;101629.22;6266313;28;20252;-75
2021/07/03 04:14:48;;;;;;;3.85;3.72;;;;;;;19.04;64.96;101622.34;6258317;28;20184;-75
2021/07/03 04:17:52;;;;;;;3.78;3.67;;;;;;;19.21;64.59;101628.66;6265043;28;20475;-75
2021/07/03 04:20:57;;;;;;;3.72;3.63;;;;;;;19.23;64.33;101632.84;6266179;28;20247;-75
2021/07/03 04:24:01;;;;;;;3.78;3.67;;;;;;;19.25;64.95;101638.13;6265165;28;20221;-74
2021/07/03 04:27:05;;;;;;;3.72;3.50;;;;;;;19.26;65.16;101637.03;6264701;28;20412;-75
2021/07/03 04:30:15;;;;;;;3.95;3.85;;;;;;;19.10;65.21;101646.22;6265631;28;20185;-75
2021/07/03 04:33:22;;;;;;;3.53;3.35;;;;;;;19.10;65.14;101643.44;6265844;28;20243;-74
2021/07/03 04:36:29;;;;;;;3.90;3.80;;;;;;;19.07;65.25;101652.25;6263696;28;20200;-75
2021/07/03 04:39:34;;;;;;;3.97;3.67;;;;;;;18.98;65.60;101651.84;6264348;28;20264;-75
2021/07/03 04:42:38;;;;;;;4.05;3.85;;;;;;;19.11;66.23;101645.09;6265386;28;20196;-75
2021/07/03 04:45:44;;;;;;;4.00;3.90;;;;;;;19.27;66.21;101638.72;6247508;28;20201;-75
2021/07/03 04:48:48;;;;;;;3.80;3.70;;;;;;;19.32;65.51;101647.09;6265612;28;20191;-75
2021/07/03 04:51:52;;;;;;;3.80;3.50;;;;;;;19.41;65.13;101626.22;6247972;28;20200;-75
2021/07/03 04:54:58;;;;;;;3.72;3.63;;;;;;;19.42;65.84;101629.81;6265040;28;20276;-75
2021/07/03 04:58:02;;;;;;;3.60;3.50;;;;;;;19.53;65.53;101628.84;6265083;28;20186;-75
2021/07/03 05:01:07;;;;;;;3.90;3.80;;;;;;;19.58;65.23;101624.22;6262338;28;20220;-75
2021/07/03 05:04:14;;;;;;;3.80;3.70;;;;;;;19.60;64.82;101627.56;6260238;28;20239;-75
2021/07/03 05:07:19;;;;;;;3.78;3.58;;;;;;;19.68;64.84;101629.88;6263728;28;20381;-75
2021/07/03 05:10:34;;;;;;;4.00;3.78;;;;;;;19.75;64.93;101630.53;6246390;28;20201;-75
2021/07/03 05:13:38;;;;;;;4.10;3.90;;;;;;;19.72;65.21;101633.81;6264471;28;20212;-75
2021/07/03 05:16:46;;;;;;;3.72;3.45;;;;;;;19.83;64.28;101632.84;6264192;28;20252;-75
2021/07/03 05:19:50;;;;;;;3.70;3.60;;;;;;;19.89;64.65;101630.97;6264059;28;20188;-75
2021/07/03 05:22:54;;;;;;;3.42;3.33;;;;;;;20.04;64.08;101633.91;6264882;28;20189;-75
2021/07/03 05:25:58;;;;;;;3.97;3.72;;;;;;;20.33;64.06;101626.19;6263318;28;20360;-75
2021/07/03 05:29:02;;;;;;;4.13;3.88;;;;;;;20.82;63.11;101630.53;6263216;28;20251;-75
2021/07/03 05:32:08;;;;;;;3.38;3.28;;;;;;;21.26;61.14;101630.28;6263244;28;20498;-75
2021/07/03 05:35:13;;;;;;;3.58;3.47;;;;;;;21.54;60.34;101621.53;6264045;28;20275;-75
2021/07/03 05:38:18;;;;;;;3.60;3.50;;;;;;;21.83;60.20;101625.53;6264871;28;20191;-76
2021/07/03 05:41:22;;;;;;;3.95;3.72;;;;;;;21.89;59.87;101621.72;6264059;28;20252;-76
2021/07/03 05:44:26;;;;;;;4.30;3.72;;;;;;;21.94;60.21;101621.72;6264296;28;20211;-75
2021/07/03 05:47:39;;;;;;;3.45;3.35;;;;;;;22.05;59.41;101623.44;6264121;28;20299;-76
2021/07/03 05:50:43;;;;;;;3.35;3.25;;;;;;;22.02;58.95;101623.97;6262762;28;20443;-75
2021/07/03 05:53:50;;;;;;;3.30;3.20;;;;;;;22.16;59.55;101625.09;6263883;28;20212;-75
2021/07/03 05:56:56;;;;;;;3.33;3.22;;;;;;;22.24;58.71;101629.28;6263640;28;20192;-76
2021/07/03 06:00:00;;;;;;;3.83;3.63;;;;;;;22.21;58.55;101622.31;6263499;28;20185;-76
2021/07/03 06:03:06;;;;;;;3.42;3.40;;;;;;;22.33;59.15;101627.66;6263218;28;20343;-75
2021/07/03 06:06:12;;;;;;;3.28;3.28;;;;;;;22.31;58.22;101627.94;6263691;28;20189;-76
2021/07/03 06:09:16;;;;;;;3.47;3.33;;;;;;;22.29;57.85;101634.88;6263487;28;20189;-76
2021/07/03 06:12:22;;;;;;;3.50;3.40;;;;;;;22.35;58.67;101631.81;6263601;28;20185;-76
2021/07/03 06:15:31;;;;;;;3.63;3.53;;;;;;;22.47;58.49;101630.72;6263107;28;20271;-75
2021/07/03 06:18:37;;;;;;;3.63;3.42;;;;;;;22.61;58.20;101631.81;6263713;28;20192;-75
2021/07/03 06:21:41;;;;;;;4.05;3.63;;;;;;;22.63;58.09;101629.63;6263462;28;20248;-75
2021/07/03 06:24:46;;;;;;;4.13;3.90;;;;;;;22.65;58.61;101644.13;6262969;28;20188;-75
2021/07/03 06:27:50;;;;;;;3.67;3.58;;;;;;;22.75;57.82;101644.13;6262255;28;20216;-76
2021/07/03 06:30:56;;;;;;;3.58;3.50;;;;;;;22.75;57.64;101644.91;6263114;28;20192;-76
2021/07/03 06:34:01;;;;;;;3.58;3.40;;;;;;;22.85;57.91;101644.09;6262909;28;20219;-76
2021/07/03 06:37:08;;;;;;;3.83;3.55;;;;;;;22.77;57.11;101636.31;6244874;28;20251;-75
2021/07/03 06:40:13;;;;;;;3.38;3.17;;;;;;;22.96;58.09;101645.75;6263039;28;20224;-76
2021/07/03 06:43:19;;;;;;;4.20;3.85;;;;;;;23.04;57.58;101653.53;6262006;28;20185;-76
2021/07/03 06:46:24;;;;;;;3.33;3.30;;;;;;;23.16;58.08;101648.53;6261597;28;20492;-75
2021/07/03 06:49:29;;;;;;;4.25;3.80;;;;;;;23.19;58.41;101655.47;6261641;28;20248;-76
2021/07/03 06:52:33;;;;;;;4.40;3.80;;;;;;;23.22;58.15;101641.81;6261856;28;20216;-76
2021/07/03 06:55:38;;;;;;;3.78;3.67;;;;;;;23.32;57.95;101650.16;6262481;28;20220;-75
2021/07/03 06:58:42;;;;;;;3.60;3.53;;;;;;;23.43;57.61;101651.81;6261394;28;20480;-76
2021/07/03 07:01:47;;;;;;;5.03;3.30;;;;;;;23.53;57.80;101643.44;6262735;28;20264;-76
2021/07/03 07:04:54;;;;;;;3.63;3.60;;;;;;;23.59;57.39;101650.66;6261181;28;20232;-76
2021/07/03 07:07:58;;;;;;;4.35;3.67;;;;;;;23.59;57.17;101639.53;6262287;28;20184;-76
2021/07/03 07:11:03;;;;;;;4.32;3.72;;;;;;;23.61;57.30;101647.59;6262434;28;20188;-76
2021/07/03 07:14:07;;;;;;;3.60;3.50;;;;;;;23.50;57.97;101646.78;6262194;28;20275;-76
2021/07/03 07:17:12;;;;;;;3.50;3.40;;;;;;;23.59;56.81;101636.75;6262238;28;20192;-76
2021/07/03 07:20:21;;;;;;;3.58;3.33;;;;;;;23.73;56.85;101638.91;6262473;28;20216;-75
2021/07/03 07:23:25;;;;;;;3.85;3.55;;;;;;;23.61;56.84;101642.84;6261371;28;20196;-75
2021/07/03 07:26:30;;;;;;;3.47;3.38;;;;;;;23.86;55.63;101649.41;6261109;28;20189;-75
2021/07/03 07:29:40;;;;;;;3.08;2.92;;;;;;;23.90;54.65;101645.78;6262059;28;20252;-75
2021/07/03 07:32:50;;;;;;;3.38;3.28;;;;;;;23.65;54.23;101643.94;6262037;28;20185;-75
2021/07/03 07:35:56;;;;;;;3.17;3.08;;;;;;;23.85;54.53;101647.78;6261817;28;20216;-75
2021/07/03 07:39:00;;;;;;;2.85;2.75;;;;;;;23.93;53.71;101652.75;6260974;28;20452;-75
2021/07/03 07:42:05;;;;;;;2.88;2.78;;;;;;;24.00;52.35;101656.06;6260686;28;20203;-75
2021/07/03 07:45:10;;;;;;;2.60;2.58;;;;;;;24.20;51.63;101661.53;6265970;28;20228;-76
2021/07/03 07:48:22;;;;;;;2.70;2.50;;;;;;;24.17;49.26;101656.53;6265514;28;20385;-75
2021/07/03 07:51:30;;;;;;;2.45;2.45;;;;;;;24.30;49.64;101667.06;6265307;28;20227;-76
2021/07/03 07:54:34;;;;;;;2.80;2.60;;;;;;;24.29;49.46;101665.41;6265990;28;20286;-75
2021/07/03 07:57:38;;;;;;;2.78;2.67;;;;;;;24.40;49.46;101655.84;6266176;28;20248;-76
2021/07/03 08:00:45;;;;;;;2.60;2.50;;;;;;;24.46;48.89;101660.25;6265096;28;20290;-76
2021/07/03 08:03:49;;;;;;;2.55;2.47;;;;;;;24.42;47.93;101659.16;6265873;28;20259;-76
2021/07/03 08:06:54;;;;;;;2.45;2.45;;;;;;;24.42;48.02;101658.34;6265114;28;20292;-76
2021/07/03 08:09:58;;;;;;;2.60;2.50;;;;;;;24.51;47.53;101671.38;6266226;28;20248;-76
2021/07/03 08:13:06;;;;;;;2.70;2.60;;;;;;;24.54;46.28;101662.44;6264988;28;20409;-76
2021/07/03 08:16:12;;;;;;;2.30;2.30;;;;;;;24.61;46.05;101674.09;6265948;28;20220;-76
2021/07/03 08:19:17;;;;;;;2.53;2.40;;;;;;;24.60;45.05;101660.44;6264623;28;20476;-76
2021/07/03 08:22:23;;;;;;;2.50;2.40;;;;;;;24.56;45.75;101665.75;6264522;28;20471;-75
2021/07/03 08:25:29;;;;;;;2.50;2.30;;;;;;;24.59;44.79;101659.59;6265853;28;20189;-75
2021/07/03 08:28:35;;;;;;;2.42;2.33;;;;;;;24.70;45.62;101661.16;6264042;28;20412;-75
2021/07/03 08:31:39;;;;;;;2.28;2.28;;;;;;;24.75;45.30;101663.94;6265533;28;20199;-76
2021/07/03 08:34:43;;;;;;;2.42;2.33;;;;;;;24.70;44.57;101663.16;6264142;28;20530;-75
2021/07/03 08:38:08;;;;;;;2.72;2.70;;;;;;;24.67;45.01;101667.38;6264338;28;20195;-75
2021/07/03 08:41:13;;;;;;;2.33;2.22;;;;;;;24.65;46.03;101661.22;6265610;28;20186;-75
2021/07/03 08:44:17;;;;;;;2.60;2.50;;;;;;;24.69;45.70;101659.53;6265335;28;20191;-75
2021/07/03 08:47:23;;;;;;;4.68;2.67;;;;;;;24.72;45.78;101653.38;6265450;28;20252;-76
2021/07/03 08:50:29;;;;;;;2.42;2.35;;;;;;;24.69;45.79;101642.78;6264508;28;20192;-75
2021/07/03 08:53:37;;;;;;;2.55;2.47;;;;;;;24.61;45.06;101654.56;6264987;28;20288;-76
2021/07/03 08:56:44;;;;;;;2.33;2.33;;;;;;;24.56;45.52;101653.75;6263685;28;20272;-76
2021/07/03 08:59:55;;;;;;;2.70;2.60;;;;;;;24.41;45.08;101628.78;6263805;28;20207;-75
2021/07/03 09:03:00;;;;;;;2.90;2.80;;;;;;;24.60;45.00;101644.50;6265059;28;20236;-76
2021/07/03 09:06:06;;;;;;;2.72;2.53;;;;;;;24.54;45.40;101651.28;6264310;28;20252;-75
2021/07/03 09:09:12;;;;;;;2.72;2.63;;;;;;;24.52;45.82;101653.53;6264389;28;20192;-76
2021/07/03 09:12:16;;;;;;;3.10;2.90;;;;;;;24.45;46.45;101650.22;6264304;28;20185;-77
2021/07/03 09:15:22;;;;;;;2.88;2.67;;;;;;;24.46;46.46;101643.53;6264518;28;20208;-76
2021/07/03 09:18:27;;;;;;;2.58;2.58;;;;;;;24.39;46.97;101648.59;6264178;28;20260;-76
2021/07/03 09:21:32;;;;;;;3.13;2.90;;;;;;;24.42;47.20;101655.56;6264548;28;20240;-75
2021/07/03 09:24:38;;;;;;;2.90;2.80;;;;;;;24.40;47.87;101650.25;6263119;28;20185;-76
2021/07/03 09:27:42;;;;;;;3.20;3.10;;;;;;;24.51;48.24;101646.28;6264260;28;20259;-76
2021/07/03 09:30:50;;;;;;;3.58;3.47;;;;;;;24.64;48.96;101645.63;6254793;28;20269;-75
2021/07/03 09:33:56;;;;;;;3.63;3.42;;;;;;;24.53;48.04;101649.59;6263904;28;20398;-76
2021/07/03 09:37:04;;;;;;;6.53;3.15;;;;;;;24.48;49.58;101652.44;6262566;28;20511;-76
2021/07/03 09:40:11;;;;;;;4.20;3.90;;;;;;;24.44;49.84;101645.78;6263589;28;20193;-75
2021/07/03 09:43:16;;;;;;;3.70;3.50;;;;;;;24.38;51.14;101652.50;6263953;28;20184;-75
2021/07/03 09:46:21;;;;;;;7.85;3.92;;;;;;;24.49;51.74;101648.53;6262662;28;20443;-76
2021/07/03 09:49:28;;;;;;;3.65;3.50;;;;;;;24.47;51.94;101656.34;6263921;28;20267;-76
2021/07/03 09:52:34;;;;;;;4.57;3.72;;;;;;;24.53;52.64;101643.19;6246213;28;20201;-76
2021/07/03 09:55:43;;;;;;;4.63;4.32;;;;;;;24.48;52.71;101646.84;6262085;28;20567;-76
2021/07/03 09:58:47;;;;;;;4.30;3.90;;;;;;;24.57;52.93;101645.13;6263165;28;20185;-76
2021/07/03 10:01:51;;;;;;;6.53;4.53;;;;;;;24.57;53.47;101645.13;6262149;28;20458;-77
2021/07/03 10:04:56;;;;;;;4.68;4.22;;;;;;;24.57;53.77;101645.13;6263554;28;20237;-76
2021/07/03 10:08:07;;;;;;;4.82;4.30;;;;;;;24.52;54.15;101650.75;6261591;28;20511;-76
2021/07/03 10:11:18;;;;;;;4.13;3.95;;;;;;;24.48;54.26;101646.84;6261853;28;20488;-76
2021/07/03 10:14:23;;;;;;;4.78;4.40;;;;;;;24.57;54.17;101650.69;6260970;28;20200;-75
2021/07/03 10:17:30;;;;;;;5.18;4.30;;;;;;;24.59;54.07;101647.63;6261774;28;20311;-75
2021/07/03 10:20:37;;;;;;;5.28;4.85;;;;;;;24.59;53.71;101648.44;6261766;28;20186;-75
2021/07/03 10:23:43;;;;;;;4.80;4.50;;;;;;;24.64;54.72;101645.63;6262376;28;20185;-75
2021/07/03 10:26:51;;;;;;;4.68;3.85;;;;;;;24.60;55.01;101661.25;6254473;28;20188;-76
2021/07/03 10:29:57;;;;;;;4.97;4.78;;;;;;;24.61;54.83;101651.78;6262499;28;20189;-76
2021/07/03 10:33:06;;;;;;;4.50;4.30;;;;;;;24.67;55.15;101650.63;6261778;28;20574;-77
2021/07/03 10:36:26;;;;;;;4.75;4.30;;;;;;;24.72;55.80;101656.16;6263212;28;20244;-77
2021/07/03 10:39:31;;;;;;;4.50;4.20;;;;;;;24.72;56.17;101642.22;6262868;28;20259;-75
2021/07/03 10:42:36;;;;;;;4.57;4.30;;;;;;;24.58;56.92;101649.56;6261366;28;20530;-75
2021/07/03 10:45:45;;;;;;;6.28;4.60;;;;;;;24.65;57.24;101646.47;6262511;28;20270;-77
2021/07/03 10:48:55;;;;;;;5.75;5.15;;;;;;;24.75;57.04;101640.78;6262749;28;20185;-76
2021/07/03 10:52:13;;;;;;;4.93;4.65;;;;;;;24.79;57.54;101645.53;6262738;28;20264;-77
2021/07/03 10:55:29;;;;;;;5.88;4.43;;;;;;;24.70;58.79;101655.59;6262449;28;20192;-76
2021/07/03 10:58:39;;;;;;;4.72;4.35;;;;;;;24.68;58.79;101645.84;6261070;28;20539;-76
2021/07/03 11:01:43;;;;;;;5.38;4.95;;;;;;;24.72;59.25;101644.16;6254767;28;20201;-76
2021/07/03 11:04:52;;;;;;;4.97;4.82;;;;;;;24.64;59.30;101642.81;6252978;28;20295;-76
2021/07/03 11:07:56;;;;;;;5.55;5.10;;;;;;;24.68;59.94;101641.09;6262524;28;20188;-75
2021/07/03 11:11:08;;;;;;;5.35;5.05;;;;;;;24.69;59.23;101648.38;6262321;28;20248;-76
2021/07/03 11:14:19;;;;;;;18.08;5.80;;;;;;;24.78;58.77;101646.63;6261399;28;20271;-74
2021/07/03 11:17:24;;;;;;;5.38;4.53;;;;;;;24.82;58.64;101644.94;6260877;28;20212;-75
2021/07/03 11:20:30;;;;;;;5.78;5.32;;;;;;;24.89;57.07;101636.22;6266425;28;20217;-75
2021/07/03 11:23:35;;;;;;;8.57;5.05;;;;;;;25.07;56.42;101648.59;6265770;28;20311;-75
2021/07/03 11:26:39;;;;;;;5.22;4.97;;;;;;;25.10;56.15;101642.44;6267052;28;20256;-75
2021/07/03 11:29:47;;;;;;;8.10;4.97;;;;;;;25.14;55.94;101644.34;6266198;28;20402;-75
2021/07/03 11:32:52;;;;;;;5.85;4.70;;;;;;;25.24;56.09;101649.81;6258190;28;20420;-75
2021/07/03 11:35:57;;;;;;;5.18;4.75;;;;;;;25.16;55.74;101652.44;6266647;28;20255;-76
2021/07/03 11:39:01;;;;;;;18.25;4.93;;;;;;;25.27;55.14;101648.41;6267120;28;20275;-76
2021/07/03 11:42:07;;;;;;;5.68;4.53;;;;;;;25.33;55.51;101653.63;6249646;28;20201;-75
2021/07/03 11:45:15;;;;;;;37.45;5.72;;;;;;;25.58;54.66;101660.94;6265670;28;20476;-76
2021/07/03 11:48:23;;;;;;;10.20;5.00;;;;;;;25.63;54.60;101652.47;6266493;28;20189;-75
2021/07/03 11:51:27;;;;;;;6.85;5.05;;;;;;;25.62;54.48;101644.41;6265267;28;20523;-75
2021/07/03 11:54:31;;;;;;;5.28;4.95;;;;;;;25.49;53.76;101648.75;6266388;28;20251;-76
2021/07/03 11:57:39;;;;;;;13.70;5.03;;;;;;;25.53;53.70;101652.59;6265289;28;20566;-75
2021/07/03 12:00:48;;;;;;;5.05;4.72;;;;;;;25.56;54.27;101651.19;6265281;28;20192;-75
2021/07/03 12:03:52;;;;;;;4.72;4.32;;;;;;;25.42;54.21;101649.06;6266102;28;20300;-75
2021/07/03 12:07:02;;;;;;;4.80;4.50;;;;;;;25.41;54.98;101652.16;6265862;28;20189;-75
2021/07/03 12:10:10;;;;;;;5.25;4.65;;;;;;;25.37;55.64;101643.53;6266308;28;20193;-75
2021/07/03 12:13:20;;;;;;;5.35;4.80;;;;;;;25.39;55.09;101640.47;6266140;28;20245;-75
2021/07/03 12:16:26;;;;;;;6.32;4.72;;;;;;;25.27;53.88;101637.25;6266238;28;20185;-75
2021/07/03 12:19:30;;;;;;;4.78;4.13;;;;;;;25.43;54.53;101635.94;6264484;28;20296;-75
2021/07/03 12:22:35;;;;;;;4.78;4.40;;;;;;;25.66;53.34;101646.31;6266169;28;20185;-76
2021/07/03 12:25:39;;;;;;;4.32;3.97;;;;;;;25.83;51.90;101631.84;6266043;28;20184;-76
2021/07/03 12:28:51;;;;;;;5.07;4.78;;;;;;;25.46;51.93;101627.00;6265416;28;20196;-76
2021/07/03 12:32:08;;;;;;;4.85;4.55;;;;;;;25.50;52.98;101628.88;6265562;28;20238;-75
2021/07/03 12:35:13;;;;;;;5.05;4.57;;;;;;;25.52;50.83;101623.81;6265978;28;20185;-76
2021/07/03 12:38:25;;;;;;;7.10;4.55;;;;;;;25.41;51.31;101621.44;6266064;28;20212;-77
2021/07/03 12:41:29;;;;;;;8.30;4.60;;;;;;;25.49;51.88;101634.78;6264450;28;20208;-76
2021/07/03 12:44:34;;;;;;;4.72;4.43;;;;;;;25.43;51.93;101635.94;6264342;28;20191;-76
2021/07/03 12:47:40;;;;;;;5.10;4.82;;;;;;;25.27;53.23;101626.06;6264156;28;20422;-76
2021/07/03 12:50:47;;;;;;;6.18;4.75;;;;;;;25.28;53.12;101627.72;6264335;28;20220;-76
2021/07/03 12:53:59;;;;;;;4.40;4.20;;;;;;;25.17;50.62;101620.56;6257916;28;20252;-76
2021/07/03 12:57:04;;;;;;;4.25;4.05;;;;;;;25.22;51.51;101634.47;6263882;28;20185;-76
2021/07/03 13:00:09;;;;;;;14.65;4.90;;;;;;;25.37;50.46;101621.19;6263713;28;20381;-76
2021/07/03 13:03:18;;;;;;;5.82;4.00;;;;;;;25.55;50.27;101622.44;6261912;28;20531;-76
2021/07/03 13:06:26;;;;;;;4.60;4.20;;;;;;;25.44;50.91;101609.66;6263592;28;20284;-76
2021/07/03 13:09:30;;;;;;;20.30;5.05;;;;;;;25.52;50.68;101617.44;6264695;28;20299;-76
2021/07/03 13:12:34;;;;;;;4.85;3.83;;;;;;;25.57;50.11;101616.53;6263476;28;20472;-76
2021/07/03 13:15:39;;;;;;;4.70;4.15;;;;;;;25.76;50.39;101609.00;6263461;28;20481;-76
2021/07/03 13:18:45;;;;;;;4.10;3.90;;;;;;;25.81;49.75;101601.38;6264567;28;20216;-76
2021/07/03 13:21:49;;;;;;;3.88;3.58;;;;;;;25.94;47.58;101606.22;6264599;28;20228;-76
2021/07/03 13:24:53;;;;;;;3.90;3.60;;;;;;;26.03;46.54;101612.00;6264108;28;20191;-76
2021/07/03 13:27:57;;;;;;;3.22;3.10;;;;;;;25.96;44.68;101606.75;6262891;28;20189;-76
2021/07/03 13:31:02;;;;;;;3.47;3.30;;;;;;;25.81;43.34;101604.19;6264285;28;20248;-76
2021/07/03 13:34:08;;;;;;;4.00;3.25;;;;;;;25.91;43.37;101598.44;6264275;28;20189;-76
2021/07/03 13:37:12;;;;;;;3.72;3.53;;;;;;;25.90;43.50;101602.38;6264496;28;20216;-76
2021/07/03 13:40:16;;;;;;;3.75;3.45;;;;;;;25.81;45.18;101609.75;6245783;28;20220;-76
2021/07/03 13:43:20;;;;;;;3.40;3.30;;;;;;;25.80;45.09;101608.13;6262491;28;20278;-75
2021/07/03 13:46:25;;;;;;;3.97;3.45;;;;;;;25.85;45.28;101605.25;6263960;28;20252;-76
2021/07/03 13:49:31;;;;;;;3.70;3.40;;;;;;;26.20;43.71;101600.28;6263249;28;20196;-75
2021/07/03 13:52:36;;;;;;;3.78;3.50;;;;;;;26.99;41.67;101614.09;6262458;28;20561;-76
2021/07/03 13:55:41;;;;;;;5.55;3.90;;;;;;;27.59;40.46;101605.66;6262475;28;20200;-76
2021/07/03 13:58:45;;;;;;;3.78;3.45;;;;;;;28.02;39.96;101601.34;6262542;28;20335;-75
2021/07/03 14:01:52;;;;;;;3.13;3.13;;;;;;;27.59;39.23;101605.66;6263427;28;20274;-75
2021/07/03 14:05:00;;;;;;;11.73;3.72;;;;;;;27.31;41.12;101611.25;6263165;28;20243;-75
2021/07/03 14:08:05;;;;;;;6.80;3.47;;;;;;;27.10;39.81;101601.56;6263468;28;20189;-75
2021/07/03 14:11:11;;;;;;;3.67;3.58;;;;;;;26.76;40.70;101615.03;6262260;28;20499;-76
2021/07/03 14:14:17;;;;;;;5.72;3.45;;;;;;;26.90;40.48;101615.09;6262968;28;20185;-75
2021/07/03 14:17:21;;;;;;;8.85;3.47;;;;;;;26.72;41.31;101602.78;6263002;28;20185;-75
2021/07/03 14:20:32;;;;;;;3.40;3.30;;;;;;;26.55;41.80;101591.34;6262560;28;20208;-74
2021/07/03 14:23:37;;;;;;;3.35;3.25;;;;;;;26.42;42.40;101598.56;6261564;28;20469;-75